createdAt,value
2023-11-21T00:00:30.357Z,28.2
2023-11-21T00:15:54.585Z,29.3
2023-11-21T00:31:19.378Z,27.8
2023-11-21T00:46:44.418Z,27.2
2023-11-21T01:02:09.579Z,28.3
2023-11-21T01:17:35.115Z,34
2023-11-21T01:33:00.358Z,33.1
2023-11-21T01:48:26.060Z,40.2
2023-11-21T02:03:51.364Z,36.9
2023-11-21T02:19:16.528Z,43
2023-11-21T02:34:41.845Z,46.3
2023-11-21T02:50:07.239Z,44.1
2023-11-21T03:05:32.094Z,53.3
2023-11-21T03:20:57.473Z,56.4
2023-11-21T03:36:22.691Z,56.6
2023-11-21T03:51:48.341Z,59
2023-11-21T04:07:13.887Z,70.5
2023-11-21T04:22:38.896Z,63
2023-11-21T04:38:04.057Z,66.6
2023-11-21T04:53:29.173Z,56.1
2023-11-21T05:08:54.235Z,53.3
2023-11-21T05:24:19.257Z,42.9
2023-11-21T05:39:44.717Z,36.4
2023-11-21T05:55:12.062Z,34.8
2023-11-21T06:10:37.571Z,31.6
2023-11-21T06:26:02.760Z,26.1
2023-11-21T06:41:28.262Z,19.5
2023-11-21T06:56:53.030Z,9.5
2023-11-21T07:12:17.430Z,13.9
2023-11-21T07:27:42.079Z,7.2
2023-11-21T07:43:06.868Z,10.6
2023-11-21T07:58:31.677Z,12.7
2023-11-21T08:13:56.892Z,13.6
2023-11-21T08:29:21.922Z,16.6
2023-11-21T08:44:46.932Z,12.8
2023-11-21T09:00:11.451Z,15.4
2023-11-21T09:15:36.478Z,17.2
2023-11-21T09:31:01.155Z,16.4
2023-11-21T09:46:26.386Z,15.6
2023-11-21T10:01:52.023Z,13.3
2023-11-21T10:17:17.672Z,12.9
2023-11-21T10:32:43.233Z,10.4
2023-11-21T10:48:08.910Z,9.9
2023-11-21T11:03:33.981Z,10.1
2023-11-21T11:18:58.820Z,9.8
2023-11-21T11:34:24.049Z,9.6
2023-11-21T11:49:49.014Z,8.9
2023-11-21T12:05:14.621Z,10.5
2023-11-21T12:20:40.327Z,7.4
2023-11-21T12:36:06.240Z,11.8
2023-11-21T12:51:31.491Z,9.5
2023-11-21T13:06:56.113Z,12.2
2023-11-21T13:22:20.584Z,10.1
2023-11-21T13:37:45.962Z,7.8
2023-11-21T13:53:11.054Z,7.2
2023-11-21T14:08:36.428Z,7.1
2023-11-21T14:24:01.075Z,7.8
2023-11-21T14:39:26.107Z,7.2
2023-11-21T14:54:51.281Z,8.1
2023-11-21T15:10:17.592Z,6.2
2023-11-21T15:25:42.300Z,7.5
2023-11-21T15:41:07.493Z,7.7
2023-11-21T15:56:32.862Z,6.8
2023-11-21T16:11:57.702Z,6.8
2023-11-21T16:27:22.276Z,8.3
2023-11-21T16:42:47.408Z,9.7
2023-11-21T16:58:12.417Z,6.3
2023-11-21T17:13:37.683Z,6.7
2023-11-21T17:29:03.213Z,6.9
2023-11-21T17:44:27.636Z,6.9
2023-11-21T17:59:52.856Z,8.7
2023-11-21T18:15:18.046Z,8.3
2023-11-21T18:30:42.628Z,7.4
2023-11-21T18:46:08.016Z,8
2023-11-21T19:01:33.650Z,8.6
2023-11-21T19:16:59.287Z,9.4
2023-11-21T19:32:24.760Z,9.6
2023-11-21T19:47:50.439Z,7.9
2023-11-21T20:03:15.741Z,7.6
2023-11-21T20:18:40.699Z,6.5
2023-11-21T20:34:05.505Z,6.1
2023-11-21T20:49:49.421Z,6.7
2023-11-21T21:05:15.433Z,9.8
2023-11-21T21:20:41.201Z,4.9
2023-11-21T21:36:06.240Z,5.7
2023-11-21T21:51:31.520Z,6.8
2023-11-21T22:06:56.706Z,7
2023-11-21T22:22:24.133Z,11.7
2023-11-21T22:37:50.279Z,9
2023-11-21T22:53:15.565Z,7
2023-11-21T23:08:40.649Z,6.5
2023-11-21T23:24:05.515Z,6.8
2023-11-21T23:39:29.809Z,7.9
2023-11-21T23:54:54.516Z,7.3
